createdAt,value
2018-09-08T00:00:02.397Z,10.92
2018-09-08T00:03:06.237Z,11.04
2018-09-08T00:06:10.059Z,11.16
2018-09-08T00:09:13.690Z,11.10
2018-09-08T00:12:17.348Z,11.03
2018-09-08T00:15:26.127Z,11.08
2018-09-08T00:18:35.054Z,11.09
2018-09-08T00:21:43.669Z,11.09
2018-09-08T00:24:52.549Z,11.23
2018-09-08T00:28:32.451Z,11.28
2018-09-08T00:31:36.132Z,11.25
2018-09-08T00:34:40.146Z,11.28
2018-09-08T00:37:44.524Z,11.44
2018-09-08T00:40:48.117Z,11.47
2018-09-08T00:43:51.789Z,11.72
2018-09-08T00:46:55.538Z,11.78
2018-09-08T00:49:59.171Z,11.76
2018-09-08T00:53:02.822Z,11.82
2018-09-08T00:56:07.242Z,11.83
2018-09-08T00:59:10.777Z,11.81
2018-09-08T01:02:14.544Z,11.82
2018-09-08T01:05:18.218Z,11.90
2018-09-08T01:08:21.762Z,12.00
2018-09-08T01:11:25.727Z,12.00
2018-09-08T01:14:29.317Z,11.94
2018-09-08T01:17:33.050Z,11.96
2018-09-08T01:20:36.644Z,11.91
2018-09-08T01:23:40.424Z,12.08
2018-09-08T01:26:44.105Z,11.98
2018-09-08T01:29:47.760Z,11.93
2018-09-08T01:32:51.323Z,11.94
2018-09-08T01:35:55.280Z,11.98
2018-09-08T01:38:58.923Z,11.92
2018-09-08T01:42:02.510Z,11.82
2018-09-08T01:45:06.464Z,12.03
2018-09-08T01:48:10.155Z,11.87
2018-09-08T01:51:13.723Z,11.91
2018-09-08T01:54:17.358Z,12.00
2018-09-08T01:57:20.971Z,11.97
2018-09-08T02:00:24.594Z,11.87
2018-09-08T02:03:28.204Z,11.89
2018-09-08T02:06:31.794Z,11.73
2018-09-08T02:09:35.436Z,11.83
2018-09-08T02:12:39.105Z,11.82
2018-09-08T02:15:42.730Z,11.68
2018-09-08T02:18:46.344Z,11.54
2018-09-08T02:21:50.014Z,11.40
2018-09-08T02:24:53.834Z,11.56
2018-09-08T02:27:57.384Z,11.36
2018-09-08T02:31:01.336Z,11.31
2018-09-08T02:34:04.986Z,11.43
2018-09-08T02:37:08.556Z,11.46
2018-09-08T02:40:12.176Z,11.47
2018-09-08T02:43:15.882Z,11.32
2018-09-08T02:46:19.489Z,11.42
2018-09-08T02:49:23.770Z,11.30
2018-09-08T02:52:26.158Z,11.17
2018-09-08T02:55:28.943Z,11.19
2018-09-08T02:58:31.274Z,11.03
2018-09-08T03:01:33.779Z,11.14
2018-09-08T03:04:36.070Z,11.19
2018-09-08T03:07:38.433Z,11.12
2018-09-08T03:10:40.739Z,11.05
2018-09-08T03:13:43.088Z,11.04
2018-09-08T03:16:45.374Z,10.90
2018-09-08T03:19:47.716Z,10.90
2018-09-08T03:22:50.026Z,10.88
2018-09-08T03:25:52.349Z,10.94
2018-09-08T03:28:54.760Z,11.09
2018-09-08T03:31:57.081Z,11.05
2018-09-08T03:34:59.396Z,11.01
2018-09-08T03:38:01.842Z,10.92
2018-09-08T03:41:04.158Z,10.96
2018-09-08T03:44:06.537Z,11.07
2018-09-08T03:47:08.835Z,10.99
2018-09-08T03:50:11.246Z,11.00
2018-09-08T03:53:13.664Z,11.00
2018-09-08T03:56:15.964Z,10.95
2018-09-08T03:59:18.281Z,10.86
2018-09-08T04:02:20.571Z,10.80
2018-09-08T04:05:24.155Z,10.81
2018-09-08T04:08:27.845Z,10.92
2018-09-08T04:11:31.482Z,10.94
2018-09-08T04:14:36.047Z,10.95
2018-09-08T04:17:40.096Z,10.86
2018-09-08T04:20:43.791Z,10.92
2018-09-08T04:23:47.320Z,10.90
2018-09-08T04:26:51.825Z,10.87
2018-09-08T04:29:55.479Z,10.85
2018-09-08T04:32:59.155Z,10.75
2018-09-08T04:36:03.507Z,10.81
2018-09-08T04:39:09.335Z,10.85
2018-09-08T04:42:12.939Z,10.79
2018-09-08T04:45:16.656Z,10.72
2018-09-08T04:48:20.336Z,10.68
2018-09-08T04:51:23.977Z,10.75
2018-09-08T04:54:27.667Z,10.81
2018-09-08T04:57:31.320Z,10.86
2018-09-08T05:00:35.341Z,10.87
2018-09-08T05:03:39.771Z,10.95
2018-09-08T05:06:43.430Z,11.11
2018-09-08T05:09:47.042Z,11.19
2018-09-08T05:12:50.727Z,11.27
2018-09-08T05:15:54.291Z,11.46
2018-09-08T05:18:57.912Z,11.64
2018-09-08T05:22:01.502Z,12.00
2018-09-08T05:25:05.180Z,12.20
2018-09-08T05:28:08.770Z,12.03
2018-09-08T05:31:12.395Z,12.22
2018-09-08T05:34:16.011Z,12.47
2018-09-08T05:37:19.620Z,12.49
2018-09-08T05:40:23.247Z,12.56
2018-09-08T05:43:26.918Z,12.75
2018-09-08T05:46:30.512Z,12.70
2018-09-08T05:49:34.197Z,12.64
2018-09-08T05:52:37.891Z,12.26
2018-09-08T05:55:41.513Z,12.18
2018-09-08T05:58:45.167Z,12.41
2018-09-08T06:01:48.759Z,13.39
2018-09-08T06:04:52.394Z,14.28
2018-09-08T06:07:56.076Z,14.99
2018-09-08T06:10:59.716Z,15.18
2018-09-08T06:14:03.471Z,14.94
2018-09-08T06:17:07.140Z,14.50
2018-09-08T06:20:10.770Z,14.67
2018-09-08T06:23:14.421Z,15.06
2018-09-08T06:26:18.113Z,15.09
2018-09-08T06:29:21.783Z,15.25
2018-09-08T06:32:25.381Z,15.23
2018-09-08T06:35:29.191Z,14.75
2018-09-08T06:38:32.813Z,15.46
2018-09-08T06:41:36.573Z,15.03
2018-09-08T06:44:40.307Z,14.50
2018-09-08T06:47:44.054Z,14.20
2018-09-08T06:50:47.721Z,14.36
2018-09-08T06:53:51.363Z,14.22
2018-09-08T06:56:55.158Z,14.33
2018-09-08T06:59:58.815Z,14.32
2018-09-08T07:03:02.488Z,14.15
2018-09-08T07:06:06.182Z,14.45
2018-09-08T07:09:11.072Z,14.53
2018-09-08T07:12:14.718Z,14.60
2018-09-08T07:15:18.635Z,14.49
2018-09-08T07:18:22.198Z,14.53
2018-09-08T07:21:25.800Z,14.40
2018-09-08T07:24:29.572Z,14.37
2018-09-08T07:27:33.144Z,14.45
2018-09-08T07:30:36.792Z,14.63
2018-09-08T07:33:40.392Z,14.98
2018-09-08T07:36:44.748Z,14.86
2018-09-08T07:39:48.457Z,14.74
2018-09-08T07:42:52.219Z,14.71
2018-09-08T07:45:55.979Z,14.82
2018-09-08T07:48:59.603Z,15.23
2018-09-08T07:52:03.288Z,15.15
2018-09-08T07:55:06.929Z,14.91
2018-09-08T07:58:10.549Z,15.06
2018-09-08T08:01:14.374Z,15.19
2018-09-08T08:04:17.970Z,15.24
2018-09-08T08:07:21.642Z,15.80
2018-09-08T08:10:25.433Z,15.66
2018-09-08T08:13:29.027Z,15.61
2018-09-08T08:16:32.721Z,15.54
2018-09-08T08:19:37.020Z,15.90
2018-09-08T08:22:40.712Z,15.88
2018-09-08T08:25:44.362Z,15.93
2018-09-08T08:28:48.109Z,16.32
2018-09-08T08:31:51.769Z,16.47
2018-09-08T08:34:55.467Z,16.32
2018-09-08T08:37:59.225Z,16.75
2018-09-08T08:41:02.945Z,16.66
2018-09-08T08:44:06.857Z,16.74
2018-09-08T08:47:10.568Z,16.99
2018-09-08T08:50:25.218Z,17.00
2018-09-08T08:53:40.229Z,17.32
2018-09-08T08:56:43.850Z,17.54
2018-09-08T08:59:47.646Z,17.19
2018-09-08T09:02:51.454Z,17.01
2018-09-08T09:05:55.129Z,17.00
2018-09-08T09:08:58.845Z,16.81
2018-09-08T09:12:02.492Z,17.22
2018-09-08T09:15:06.313Z,17.70
2018-09-08T09:18:10.348Z,17.54
2018-09-08T09:21:25.137Z,17.64
2018-09-08T09:24:56.537Z,17.63
2018-09-08T09:28:00.128Z,17.43
2018-09-08T09:31:03.878Z,17.70
2018-09-08T09:34:07.625Z,17.88
2018-09-08T09:37:11.485Z,17.68
2018-09-08T09:40:16.593Z,17.68
2018-09-08T09:43:20.448Z,18.02
2018-09-08T09:46:24.095Z,17.87
2018-09-08T09:49:27.840Z,17.98
2018-09-08T09:52:31.386Z,18.36
2018-09-08T09:55:35.248Z,18.42
2018-09-08T09:58:39.059Z,18.14
2018-09-08T10:01:44.199Z,18.25
2018-09-08T10:04:47.836Z,18.13
2018-09-08T10:07:52.096Z,18.43
2018-09-08T10:10:55.780Z,18.91
2018-09-08T10:13:59.512Z,19.12
2018-09-08T10:17:03.322Z,18.93
2018-09-08T10:20:08.841Z,19.30
2018-09-08T10:23:12.590Z,19.58
2018-09-08T10:26:16.216Z,19.96
2018-09-08T10:29:19.844Z,19.43
2018-09-08T10:32:23.890Z,19.59
2018-09-08T10:35:27.653Z,19.85
2018-09-08T10:38:31.296Z,20.06
2018-09-08T10:41:35.084Z,19.44
2018-09-08T10:44:38.791Z,19.61
2018-09-08T10:47:42.474Z,19.88
2018-09-08T10:50:46.207Z,19.46
2018-09-08T10:53:49.826Z,19.26
2018-09-08T10:56:53.574Z,19.37
2018-09-08T10:59:57.501Z,19.46
2018-09-08T11:03:01.231Z,19.65
2018-09-08T11:06:05.077Z,19.86
2018-09-08T11:09:08.762Z,19.88
2018-09-08T11:12:12.604Z,19.77
2018-09-08T11:15:16.409Z,19.99
2018-09-08T11:18:20.161Z,19.57
2018-09-08T11:21:24.587Z,19.92
2018-09-08T11:24:28.270Z,19.65
2018-09-08T11:27:31.916Z,19.62
2018-09-08T11:30:35.706Z,19.79
2018-09-08T11:33:39.307Z,19.68
2018-09-08T11:36:43.115Z,19.77
2018-09-08T11:39:46.876Z,19.48
2018-09-08T11:42:51.771Z,19.82
2018-09-08T11:45:55.405Z,20.00
2018-09-08T11:48:59.115Z,20.29
2018-09-08T11:52:02.911Z,19.97
2018-09-08T11:55:06.777Z,20.15
2018-09-08T11:58:10.426Z,20.42
2018-09-08T12:01:14.316Z,20.36
2018-09-08T12:04:17.980Z,20.72
2018-09-08T12:07:21.687Z,20.50
2018-09-08T12:10:25.396Z,20.46
2018-09-08T12:13:29.133Z,20.36
2018-09-08T12:16:32.774Z,20.49
2018-09-08T12:19:36.497Z,20.18
2018-09-08T12:22:40.172Z,20.47
2018-09-08T12:25:43.892Z,20.39
2018-09-08T12:28:47.582Z,20.55
2018-09-08T12:31:51.332Z,20.91
2018-09-08T12:34:55.115Z,20.35
2018-09-08T12:37:58.807Z,20.98
2018-09-08T12:41:02.634Z,21.03
2018-09-08T12:44:06.487Z,20.89
2018-09-08T12:47:10.077Z,21.01
2018-09-08T12:50:13.758Z,20.53
2018-09-08T12:53:17.431Z,20.51
2018-09-08T12:56:21.204Z,20.24
2018-09-08T12:59:24.965Z,20.51
2018-09-08T13:02:28.901Z,20.27
2018-09-08T13:05:32.782Z,20.45
2018-09-08T13:08:36.442Z,20.30
2018-09-08T13:11:40.447Z,20.43
2018-09-08T13:14:44.360Z,19.77
2018-09-08T13:17:50.263Z,20.04
2018-09-08T13:20:54.057Z,20.17
2018-09-08T13:23:57.809Z,20.15
2018-09-08T13:27:01.600Z,19.98
2018-09-08T13:30:05.946Z,20.03
2018-09-08T13:33:09.771Z,20.37
2018-09-08T13:36:13.441Z,20.27
2018-09-08T13:39:17.528Z,19.92
2018-09-08T13:42:21.249Z,19.67
2018-09-08T13:45:24.958Z,20.09
2018-09-08T13:48:28.624Z,20.36
2018-09-08T13:51:32.344Z,20.05
2018-09-08T13:54:36.171Z,20.15
2018-09-08T13:57:39.839Z,20.47
2018-09-08T14:00:43.510Z,20.71
2018-09-08T14:03:47.239Z,20.76
2018-09-08T14:06:51.060Z,20.73
2018-09-08T14:09:54.644Z,20.50
2018-09-08T14:12:58.409Z,20.16
2018-09-08T14:16:02.117Z,19.75
2018-09-08T14:19:06.228Z,19.62
2018-09-08T14:22:09.901Z,19.79
2018-09-08T14:25:13.630Z,19.95
2018-09-08T14:28:18.446Z,20.17
2018-09-08T14:31:22.251Z,19.82
2018-09-08T14:34:25.924Z,19.79
2018-09-08T14:37:29.582Z,19.70
2018-09-08T14:40:33.360Z,19.89
2018-09-08T14:43:37.132Z,19.41
2018-09-08T14:46:40.763Z,19.37
2018-09-08T14:49:44.444Z,19.35
2018-09-08T14:52:48.397Z,19.55
2018-09-08T14:55:52.069Z,19.72
2018-09-08T14:58:55.748Z,19.51
2018-09-08T15:01:59.679Z,19.37
2018-09-08T15:05:03.455Z,19.66
2018-09-08T15:08:07.222Z,19.57
2018-09-08T15:11:11.358Z,19.90
2018-09-08T15:14:15.109Z,19.84
2018-09-08T15:17:18.745Z,19.59
2018-09-08T15:20:22.438Z,19.61
2018-09-08T15:23:26.185Z,19.54
2018-09-08T15:26:29.995Z,19.65
2018-09-08T15:29:33.628Z,19.68
2018-09-08T15:32:37.384Z,19.72
2018-09-08T15:35:41.055Z,19.77
2018-09-08T15:38:44.855Z,19.80
2018-09-08T15:41:48.563Z,19.82
2018-09-08T15:44:52.220Z,19.81
2018-09-08T15:47:55.890Z,19.55
2018-09-08T15:50:59.716Z,19.29
2018-09-08T15:54:03.356Z,19.26
2018-09-08T15:57:07.112Z,19.14
2018-09-08T16:00:10.811Z,19.18
2018-09-08T16:03:14.573Z,19.07
2018-09-08T16:06:18.275Z,18.91
2018-09-08T16:09:21.954Z,18.97
2018-09-08T16:12:25.589Z,18.93
2018-09-08T16:15:29.309Z,18.87
2018-09-08T16:18:33.082Z,18.84
2018-09-08T16:21:36.910Z,18.78
2018-09-08T16:24:40.706Z,18.67
2018-09-08T16:27:44.437Z,18.69
2018-09-08T16:30:48.272Z,18.59
2018-09-08T16:33:51.961Z,18.54
2018-09-08T16:36:55.676Z,18.43
2018-09-08T16:39:59.464Z,18.35
2018-09-08T16:43:03.190Z,18.27
2018-09-08T16:46:07.244Z,18.18
2018-09-08T16:49:10.971Z,18.10
2018-09-08T16:52:14.838Z,18.03
2018-09-08T16:55:18.605Z,17.99
2018-09-08T16:58:22.316Z,17.99
2018-09-08T17:01:26.000Z,17.92
2018-09-08T17:04:30.986Z,17.87
2018-09-08T17:07:34.705Z,17.81
2018-09-08T17:10:38.395Z,17.69
2018-09-08T17:13:42.144Z,17.64
2018-09-08T17:16:45.921Z,17.67
2018-09-08T17:19:49.750Z,17.66
2018-09-08T17:22:54.296Z,17.65
2018-09-08T17:25:58.084Z,17.55
2018-09-08T17:29:01.949Z,17.50
2018-09-08T17:32:05.710Z,17.43
2018-09-08T17:35:09.397Z,17.36
2018-09-08T17:38:13.082Z,17.23
2018-09-08T17:41:16.900Z,17.18
2018-09-08T17:44:20.702Z,17.02
2018-09-08T17:47:24.491Z,16.95
2018-09-08T17:50:28.201Z,16.81
2018-09-08T17:53:32.073Z,16.72
2018-09-08T17:56:35.744Z,16.62
2018-09-08T17:59:39.436Z,16.60
2018-09-08T18:02:43.476Z,16.50
2018-09-08T18:05:47.337Z,16.42
2018-09-08T18:08:50.950Z,16.27
2018-09-08T18:11:54.671Z,16.13
2018-09-08T18:14:58.369Z,16.05
2018-09-08T18:18:02.042Z,15.95
2018-09-08T18:21:05.928Z,15.80
2018-09-08T18:24:09.731Z,15.68
2018-09-08T18:27:13.363Z,15.59
2018-09-08T18:30:17.097Z,15.51
2018-09-08T18:33:20.769Z,15.55
2018-09-08T18:36:24.992Z,15.47
2018-09-08T18:39:28.657Z,15.46
2018-09-08T18:42:32.422Z,15.43
2018-09-08T18:45:36.117Z,15.44
2018-09-08T18:48:39.908Z,15.48
2018-09-08T18:51:44.263Z,15.44
2018-09-08T18:54:48.016Z,15.47
2018-09-08T18:57:51.896Z,15.52
2018-09-08T19:00:55.699Z,15.52
2018-09-08T19:03:59.420Z,15.56
2018-09-08T19:07:03.243Z,15.60
2018-09-08T19:10:07.492Z,15.53
2018-09-08T19:13:11.285Z,15.46
2018-09-08T19:16:15.222Z,15.47
2018-09-08T19:19:19.101Z,15.41
2018-09-08T19:22:23.040Z,15.42
2018-09-08T19:25:26.935Z,15.40
2018-09-08T19:28:30.822Z,15.40
2018-09-08T19:31:34.722Z,15.41
2018-09-08T19:34:38.628Z,15.41
2018-09-08T19:37:42.385Z,15.36
2018-09-08T19:40:47.227Z,15.36
2018-09-08T19:43:51.072Z,15.39
2018-09-08T19:47:00.671Z,15.28
2018-09-08T19:50:04.593Z,15.23
2018-09-08T19:53:13.473Z,15.22
2018-09-08T19:56:17.400Z,15.21
2018-09-08T19:59:21.326Z,15.21
2018-09-08T20:02:25.161Z,15.16
2018-09-08T20:05:28.911Z,15.15
2018-09-08T20:08:32.808Z,15.17
2018-09-08T20:11:36.458Z,15.15
2018-09-08T20:14:40.297Z,15.08
2018-09-08T20:17:43.952Z,15.04
2018-09-08T20:20:47.601Z,15.06
2018-09-08T20:23:51.393Z,15.04
2018-09-08T20:26:55.174Z,15.09
2018-09-08T20:29:58.868Z,15.06
2018-09-08T20:33:02.613Z,14.98
2018-09-08T20:36:06.361Z,14.95
2018-09-08T20:39:10.148Z,14.85
2018-09-08T20:42:14.302Z,14.86
2018-09-08T20:45:17.986Z,14.83
2018-09-08T20:48:21.691Z,14.79
2018-09-08T20:51:25.792Z,14.78
2018-09-08T20:54:29.513Z,14.84
2018-09-08T20:57:33.173Z,14.81
2018-09-08T21:00:37.916Z,14.82
2018-09-08T21:03:41.706Z,14.83
2018-09-08T21:06:45.535Z,14.82
2018-09-08T21:09:49.272Z,14.80
2018-09-08T21:12:53.021Z,14.79
2018-09-08T21:15:56.656Z,14.93
2018-09-08T21:19:00.625Z,14.89
2018-09-08T21:22:05.528Z,14.85
2018-09-08T21:25:09.294Z,14.80
2018-09-08T21:28:14.794Z,14.69
2018-09-08T21:31:20.856Z,14.67
2018-09-08T21:34:25.490Z,14.60
2018-09-08T21:37:30.232Z,14.59
2018-09-08T21:40:33.903Z,14.66
2018-09-08T21:43:37.783Z,14.66
2018-09-08T21:46:41.544Z,14.66
2018-09-08T21:49:45.268Z,14.70
2018-09-08T21:52:49.133Z,14.68
2018-09-08T21:55:52.902Z,14.72
2018-09-08T21:58:56.614Z,14.72
2018-09-08T22:02:00.887Z,14.71
2018-09-08T22:05:05.472Z,14.70
2018-09-08T22:08:09.319Z,14.66
2018-09-08T22:11:13.102Z,14.60
2018-09-08T22:14:16.849Z,14.58
2018-09-08T22:17:20.516Z,14.57
2018-09-08T22:20:24.395Z,14.53
2018-09-08T22:23:28.094Z,14.54
2018-09-08T22:26:31.813Z,14.57
2018-09-08T22:29:35.739Z,14.72
2018-09-08T22:32:39.455Z,14.73
2018-09-08T22:35:43.184Z,14.75
2018-09-08T22:38:46.945Z,14.71
2018-09-08T22:41:50.628Z,14.69
2018-09-08T22:44:54.469Z,14.68
2018-09-08T22:47:58.184Z,14.67
2018-09-08T22:51:01.920Z,14.71
2018-09-08T22:54:05.599Z,14.62
2018-09-08T22:57:09.371Z,14.63
2018-09-08T23:00:13.114Z,14.60
2018-09-08T23:03:16.785Z,14.57
2018-09-08T23:06:20.598Z,14.54
2018-09-08T23:09:24.322Z,14.54
2018-09-08T23:12:28.089Z,14.50
2018-09-08T23:15:31.874Z,14.51
2018-09-08T23:18:35.452Z,14.49
2018-09-08T23:21:39.272Z,14.44
2018-09-08T23:24:42.890Z,14.44
2018-09-08T23:27:46.608Z,14.49
2018-09-08T23:30:50.322Z,14.64
2018-09-08T23:33:54.006Z,14.59
2018-09-08T23:36:57.747Z,14.50
2018-09-08T23:40:01.470Z,14.45
2018-09-08T23:43:05.140Z,14.45
2018-09-08T23:46:08.919Z,14.42
2018-09-08T23:49:12.544Z,14.38
2018-09-08T23:52:16.344Z,14.36
2018-09-08T23:55:19.980Z,14.37
2018-09-08T23:58:23.686Z,14.36
